This is the latest recevied weather packets stored in our database for station/object KC9DK. If no packets are shown the sender has not sent any weather packets the latest 10 day(s).
| Time | Temp. | Humidity | Pressure | Rain* | Wind** | Luminosity | Snow |
|---|---|---|---|---|---|---|---|
| 1777602168 | 10° C | 71% | 1016.6 hPa | 0 mm | - | 0 W/m² | - |
| 1777601864 | 10.56° C | 73% | 1016.7 hPa | 0 mm | - | 0 W/m² | - |
| 1777601559 | 10.56° C | 71% | 1016.6 hPa | 0 mm | - | 0 W/m² | - |
| 1777601254 | 10.56° C | 72% | 1016.6 hPa | 0 mm | - | 0 W/m² | - |
| 1777600952 | 10.56° C | 71% | 1016.5 hPa | 0 mm | - | 0 W/m² | - |
| 1777600647 | 11.11° C | 70% | 1016.4 hPa | 0 mm | - | 0 W/m² | - |
| 1777600344 | 11.11° C | 64% | 1016.3 hPa | 0 mm | - | 0 W/m² | - |
| 1777600040 | 11.11° C | 66% | 1016.3 hPa | 0 mm | - | 0 W/m² | - |
| 1777599736 | 11.11° C | 67% | 1016.3 hPa | 0 mm | - | 0 W/m² | - |
| 1777599432 | 11.11° C | 64% | 1016.2 hPa | 0 mm | - | 0 W/m² | - |
| 1777599129 | 11.11° C | 65% | 1016.4 hPa | 0 mm | - | 0 W/m² | - |
| 1777598828 | 11.67° C | 60% | 1016 hPa | 0 mm | - | 0 W/m² | - |
| 1777598522 | 11.67° C | 60% | 1016.1 hPa | 0 mm | - | 0 W/m² | - |
| 1777598217 | 11.67° C | 62% | 1016.1 hPa | 0 mm | - | 0 W/m² | - |
| 1777597915 | 12.22° C | 61% | 1016.3 hPa | 0 mm | - | 0 W/m² | - |
| 1777597615 | 12.22° C | 60% | 1015.9 hPa | 0 mm | - | 0 W/m² | - |
| 1777597311 | 12.22° C | 62% | 1016.3 hPa | 0 mm | - | 0 W/m² | - |
| 1777597006 | 12.78° C | 65% | 1016.4 hPa | 0 mm | - | 0 W/m² | - |
| 1777596703 | 12.78° C | 62% | 1016.2 hPa | 0 mm | - | 0 W/m² | - |
| 1777596401 | 12.78° C | 59% | 1016.2 hPa | 0 mm | - | 1 W/m² | - |
| 1777596097 | 13.33° C | 60% | 1016.2 hPa | 0 mm | - | 2 W/m² | - |
| 1777595793 | 13.89° C | 60% | 1016.2 hPa | 0 mm | - | 4 W/m² | - |
| 1777595488 | 13.89° C | 57% | 1016.3 hPa | 0 mm | - | 6 W/m² | - |
| 1777595185 | 13.89° C | 58% | 1016.4 hPa | 0 mm | - | 9 W/m² | - |
| 1777594881 | 14.44° C | 54% | 1016.5 hPa | 0 mm | - | 12 W/m² | - |
* Rain latest hour (hover to see other rain measurements)
** Current wind speed in m/s (hover to see current wind gust speed)